Time;durP1;ratioP1;P1;durP2;ratioP2;P2;SDS_P1;SDS_P2;PMS_P1;PMS_P2;Temp;Humidity;BMP_temperature;BMP_pressure;BME280_temperature;BME280_humidity;BME280_pressure;Samples;Min_cycle;Max_cycle;Signal;HPM_P1;HPM_P2
2022/05/09 00:00:06;;;;;;;;;22.50;20.00;;;;;16.51;58.47;102133.59;5034776;28;45378;-62
2022/05/09 00:02:32;;;;;;;;;25.75;20.00;;;;;16.48;58.30;102133.69;5037734;28;45459;-62
2022/05/09 00:04:57;;;;;;;;;20.25;19.00;;;;;16.42;59.77;102138.22;5038659;28;45411;-63
2022/05/09 00:07:22;;;;;;;;;18.75;18.00;;;;;16.31;59.11;102132.44;5037174;28;45522;-62
2022/05/09 00:09:48;;;;;;;;;17.25;14.75;;;;;16.25;58.61;102134.38;5038865;28;45550;-64
2022/05/09 00:12:13;;;;;;;;;20.75;20.75;;;;;16.19;59.81;102134.53;5036717;28;45584;-62
2022/05/09 00:14:39;;;;;;;;;21.50;19.00;;;;;16.15;58.82;102135.53;5036753;28;46162;-64
2022/05/09 00:17:05;;;;;;;;;19.00;18.00;;;;;16.12;59.18;102137.34;5037150;28;45719;-64
2022/05/09 00:19:30;;;;;;;;;19.75;19.25;;;;;16.08;58.68;102133.09;5037124;28;45485;-63
2022/05/09 00:21:56;;;;;;;;;18.00;17.00;;;;;16.06;59.04;102141.91;5037341;28;45419;-64
2022/05/09 00:24:22;;;;;;;;;14.00;13.00;;;;;16.00;58.58;102132.41;5039088;28;45496;-64
2022/05/09 00:26:49;;;;;;;;;21.25;17.75;;;;;15.96;58.64;102127.31;5039562;28;45810;-63
2022/05/09 00:29:16;;;;;;;;;16.00;13.50;;;;;15.94;59.14;102123.88;5039233;28;45516;-63
2022/05/09 00:31:45;;;;;;;;;21.50;19.00;;;;;15.92;58.82;102126.53;5039339;28;45484;-64
2022/05/09 00:34:12;;;;;;;;;17.75;15.50;;;;;15.91;58.62;102126.59;5039100;28;46341;-64
2022/05/09 00:36:38;;;;;;;;;18.75;13.75;;;;;15.88;59.18;102127.53;5039026;28;45438;-64
2022/05/09 00:39:04;;;;;;;;;20.75;15.75;;;;;15.84;58.46;102120.66;5039023;28;45272;-64
2022/05/09 00:41:37;;;;;;;;;16.50;16.25;;;;;15.79;58.40;102128.63;5038893;28;45339;-63
2022/05/09 00:44:19;;;;;;;;;17.25;12.75;;;;;15.76;58.27;102130.47;5038552;28;46350;-63
2022/05/09 00:46:51;;;;;;;;;6.50;5.00;;;;;15.71;58.21;102124.50;5038579;28;45450;-64
2022/05/09 00:49:29;;;;;;;;;14.50;13.00;;;;;15.67;58.84;102130.75;5039249;28;45437;-64
2022/05/09 00:52:13;;;;;;;;;14.25;9.00;;;;;15.60;59.08;102131.78;5038875;28;45520;-63
2022/05/09 00:54:49;;;;;;;;;15.25;9.75;;;;;15.56;58.83;102125.72;5037606;28;48542;-64
2022/05/09 00:57:19;;;;;;;;;13.25;13.25;;;;;15.57;58.39;102126.59;5024605;28;45415;-64
2022/05/09 00:59:47;;;;;;;;;12.25;9.75;;;;;15.56;58.65;102124.88;5038948;28;45248;-65
2022/05/09 01:02:15;;;;;;;;;12.75;9.75;;;;;15.54;59.10;102124.91;5040596;28;45371;-64
2022/05/09 01:04:53;;;;;;;;;14.25;12.00;;;;;15.53;58.66;102124.06;5040840;28;47852;-64
2022/05/09 01:07:19;;;;;;;;;11.25;10.50;;;;;15.52;58.39;102119.72;5042436;28;45689;-65
2022/05/09 01:09:44;;;;;;;;;14.00;9.75;;;;;15.55;58.34;102123.16;5048203;28;45273;-65
2022/05/09 01:12:12;;;;;;;;;11.25;9.25;;;;;15.55;58.16;102120.53;5042101;28;45422;-64
2022/05/09 01:14:39;;;;;;;;;16.50;13.75;;;;;15.55;58.23;102116.16;5042266;28;46592;-64
2022/05/09 01:17:05;;;;;;;;;14.00;11.75;;;;;15.53;58.24;102115.34;5040791;28;45850;-64
2022/05/09 01:19:39;;;;;;;;;16.00;11.75;;;;;15.52;58.27;102114.47;5042070;28;45436;-64
2022/05/09 01:22:34;;;;;;;;;14.25;10.00;;;;;15.52;57.81;102113.63;5041831;28;45331;-64
2022/05/09 01:25:06;;;;;;;;;16.25;11.50;;;;;15.49;58.37;102119.78;5029306;28;45603;-65
2022/05/09 01:27:33;;;;;;;;;12.00;9.00;;;;;15.48;58.61;102125.09;5041624;28;45942;-65
2022/05/09 01:30:09;;;;;;;;;14.25;13.00;;;;;15.45;58.05;102123.41;5040827;28;45470;-65
2022/05/09 01:32:43;;;;;;;;;17.25;12.00;;;;;15.41;58.59;102126.97;5041680;28;45727;-65
2022/05/09 01:35:25;;;;;;;;;10.00;9.25;;;;;15.35;58.10;102123.66;5041815;28;45469;-65
2022/05/09 01:38:15;;;;;;;;;11.75;11.75;;;;;15.29;58.37;102131.69;5041655;28;45298;-64
2022/05/09 01:40:40;;;;;;;;;13.25;11.75;;;;;15.27;58.40;102123.00;5039981;28;45572;-64
2022/05/09 01:43:06;;;;;;;;;8.75;8.25;;;;;15.23;58.18;102126.59;5041307;28;45393;-64
2022/05/09 01:45:31;;;;;;;;;15.75;8.75;;;;;15.18;58.54;102122.31;5041282;28;45424;-64
2022/05/09 01:50:40;;;;;;;;;9.75;8.00;;;;;15.07;58.29;102113.03;5041697;28;45502;-65
2022/05/09 01:53:06;;;;;;;;;9.25;8.25;;;;;15.05;58.34;102115.69;5041606;28;45497;-65
2022/05/09 01:55:31;;;;;;;;;10.75;8.00;;;;;15.03;58.94;102114.84;5041183;28;45327;-65
2022/05/09 01:57:57;;;;;;;;;13.75;11.50;;;;;14.98;59.40;102113.22;5041255;28;45486;-65
2022/05/09 02:00:22;;;;;;;;;9.00;9.00;;;;;14.92;58.43;102114.22;5041522;28;45319;-65
2022/05/09 02:02:48;;;;;;;;;10.50;9.00;;;;;14.87;58.68;102111.72;5041504;28;45204;-63
2022/05/09 02:05:13;;;;;;;;;12.25;8.75;;;;;14.85;59.74;102116.16;5041219;28;45643;-63
2022/05/09 02:07:39;;;;;;;;;11.00;6.75;;;;;14.79;59.21;102113.66;5041501;28;45275;-62
2022/05/09 02:10:05;;;;;;;;;9.25;8.00;;;;;14.73;59.23;102111.19;5047946;28;45225;-62
2022/05/09 02:12:31;;;;;;;;;13.00;11.00;;;;;14.70;59.19;102116.50;5040966;28;45536;-63
2022/05/09 02:14:56;;;;;;;;;11.25;9.00;;;;;14.69;59.54;102122.63;5040205;28;45246;-63
2022/05/09 02:17:21;;;;;;;;;9.50;8.00;;;;;14.62;60.43;102113.19;5041222;28;45255;-63
2022/05/09 02:19:47;;;;;;;;;7.00;6.50;;;;;14.56;60.14;102102.84;5041320;28;45247;-63
2022/05/09 02:22:14;;;;;;;;;12.75;11.25;;;;;14.54;61.64;102105.50;5040889;28;45459;-64
2022/05/09 02:24:40;;;;;;;;;12.25;9.50;;;;;14.50;60.77;102118.69;5040556;28;46304;-63
2022/05/09 02:27:07;;;;;;;;;11.50;10.00;;;;;14.44;61.75;102110.97;5040379;28;45331;-64
2022/05/09 02:29:32;;;;;;;;;11.75;9.00;;;;;14.40;61.86;102112.75;5040825;28;45274;-64
2022/05/09 02:31:58;;;;;;;;;11.00;9.50;;;;;14.39;61.10;102110.16;5051299;28;45453;-65
2022/05/09 02:34:24;;;;;;;;;11.00;8.25;;;;;14.38;62.16;102113.66;5048111;28;46123;-65
2022/05/09 02:36:49;;;;;;;;;11.00;7.75;;;;;14.34;61.35;102109.41;5049336;28;45469;-63
2022/05/09 02:39:15;;;;;;;;;10.50;8.00;;;;;14.36;61.26;102110.22;5051264;28;45196;-64
2022/05/09 02:41:43;;;;;;;;;11.50;10.50;;;;;14.32;61.33;102107.69;5041798;28;45928;-63
2022/05/09 02:44:09;;;;;;;;;12.25;8.75;;;;;14.32;61.54;102110.31;5040441;28;45527;-63
2022/05/09 02:46:34;;;;;;;;;14.25;8.75;;;;;14.32;61.33;102115.53;5040833;28;45355;-63
2022/05/09 02:49:02;;;;;;;;;12.25;11.00;;;;;14.30;62.31;102106.84;5040600;28;45303;-63
2022/05/09 02:51:27;;;;;;;;;11.25;10.50;;;;;14.31;61.33;102105.97;5040687;28;45355;-63
2022/05/09 02:53:55;;;;;;;;;15.25;13.50;;;;;14.30;61.58;102104.25;5040148;28;45364;-63
2022/05/09 02:56:21;;;;;;;;;14.75;12.25;;;;;14.28;61.88;102102.56;5040472;28;45257;-63
2022/05/09 02:58:46;;;;;;;;;11.50;8.75;;;;;14.26;61.56;102101.72;5040406;28;45470;-63
2022/05/09 03:01:12;;;;;;;;;11.25;9.50;;;;;14.22;61.53;102100.94;5040393;28;45612;-63
2022/05/09 03:06:21;;;;;;;;;12.00;11.00;;;;;14.11;63.34;102099.44;5040418;28;45253;-64
2022/05/09 03:08:47;;;;;;;;;15.00;11.00;;;;;14.07;62.13;102103.00;5042609;28;47272;-64
2022/05/09 03:11:12;;;;;;;;;16.50;12.75;;;;;14.03;62.86;102099.59;5043782;28;45467;-64
2022/05/09 03:13:39;;;;;;;;;14.00;14.00;;;;;14.00;62.86;102094.41;5044661;28;45307;-64
2022/05/09 03:16:04;;;;;;;;;15.25;11.50;;;;;14.03;62.68;102089.13;5047429;28;45485;-64
2022/05/09 03:18:30;;;;;;;;;13.50;11.25;;;;;14.00;63.05;102094.41;5040380;28;45339;-64
2022/05/09 03:20:55;;;;;;;;;12.75;12.00;;;;;13.96;63.29;102092.75;5039610;28;45335;-64
2022/05/09 03:23:21;;;;;;;;;15.50;13.25;;;;;13.90;62.59;102079.81;5039747;28;46276;-64
2022/05/09 03:25:46;;;;;;;;;14.00;13.75;;;;;13.91;62.95;102097.22;5039109;28;45316;-63
2022/05/09 03:28:24;;;;;;;;;14.25;12.75;;;;;13.86;63.45;102088.59;5039380;28;45380;-63
2022/05/09 03:30:51;;;;;;;;;15.25;13.25;;;;;13.79;63.88;102090.47;5040259;28;45470;-63
2022/05/09 03:33:17;;;;;;;;;13.75;13.00;;;;;13.79;65.44;102089.59;5041883;28;46151;-62
2022/05/09 03:35:44;;;;;;;;;23.50;19.75;;;;;13.78;63.67;102093.09;5039786;28;45359;-63
2022/05/09 03:38:10;;;;;;;;;21.50;16.50;;;;;13.71;63.96;102079.31;5040352;28;45358;-63
2022/05/09 03:40:36;;;;;;;;;12.75;11.75;;;;;13.72;63.70;102095.84;5039740;28;45425;-63
2022/05/09 03:43:02;;;;;;;;;15.50;12.75;;;;;13.70;64.33;102088.91;5039392;28;45622;-64
2022/05/09 03:45:28;;;;;;;;;14.50;12.75;;;;;13.68;65.06;102095.91;5038348;28;45931;-63
2022/05/09 03:47:54;;;;;;;;;14.25;14.00;;;;;13.65;64.96;102093.34;5040216;28;45312;-64
2022/05/09 03:50:20;;;;;;;;;21.50;14.00;;;;;13.60;65.06;102096.91;5039830;28;45283;-64
2022/05/09 03:52:46;;;;;;;;;18.75;14.00;;;;;13.60;64.92;102091.69;5039540;28;46272;-64
2022/05/09 03:55:12;;;;;;;;;18.50;14.25;;;;;13.54;65.07;102097.91;5039920;28;45434;-63
2022/05/09 03:57:50;;;;;;;;;17.75;14.00;;;;;13.52;64.76;102099.69;5037374;28;45725;-63
2022/05/09 04:00:18;;;;;;;;;18.75;17.25;;;;;13.51;66.90;102091.88;5037269;28;45433;-64
2022/05/09 04:02:44;;;;;;;;;20.50;16.00;;;;;13.47;65.86;102095.44;5037187;28;45636;-64
2022/05/09 04:05:16;;;;;;;;;20.75;15.00;;;;;13.44;65.28;102091.13;5037183;28;45811;-64
2022/05/09 04:07:47;;;;;;;;;19.50;17.75;;;;;13.45;64.86;102092.84;5037352;28;45739;-64
2022/05/09 04:10:15;;;;;;;;;14.00;12.50;;;;;13.46;65.35;102091.97;5044394;28;45568;-65
2022/05/09 04:12:40;;;;;;;;;22.25;16.25;;;;;13.46;65.82;102083.28;5042598;28;48582;-64
2022/05/09 04:17:52;;;;;;;;;29.25;21.50;;;;;13.44;65.46;102095.50;5039487;28;45438;-64
2022/05/09 04:20:17;;;;;;;;;18.50;17.75;;;;;13.44;64.61;102083.31;5038010;28;45411;-63
2022/05/09 04:22:42;;;;;;;;;15.75;14.75;;;;;13.44;65.39;102095.50;5038856;28;45511;-62
2022/05/09 04:25:08;;;;;;;;;15.75;15.75;;;;;13.38;65.89;102099.06;5039281;28;45240;-63
2022/05/09 04:27:33;;;;;;;;;22.50;18.50;;;;;13.35;65.66;102091.28;5039114;28;45279;-62
2022/05/09 04:29:59;;;;;;;;;18.25;17.00;;;;;13.35;65.58;102091.28;5045325;28;45240;-62
2022/05/09 04:32:25;;;;;;;;;22.50;18.75;;;;;13.33;65.96;102088.69;5037767;28;47985;-63
2022/05/09 04:34:50;;;;;;;;;17.25;13.75;;;;;13.33;66.26;102088.69;5039365;28;45213;-63
2022/05/09 04:37:16;;;;;;;;;25.25;20.75;;;;;13.37;65.67;102086.88;5040512;28;45289;-64
2022/05/09 04:39:45;;;;;;;;;19.50;18.00;;;;;13.39;65.47;102091.19;5042300;28;45457;-65
2022/05/09 04:42:12;;;;;;;;;21.50;14.75;;;;;13.40;65.86;102090.28;5041806;28;47084;-66
2022/05/09 04:44:38;;;;;;;;;18.25;15.75;;;;;13.45;66.46;102089.38;5042717;28;45743;-66
2022/05/09 04:47:03;;;;;;;;;25.50;18.00;;;;;13.46;65.55;102102.41;5042398;28;45585;-65
2022/05/09 04:49:28;;;;;;;;;18.50;16.25;;;;;13.45;66.02;102086.78;5042679;28;45162;-67
2022/05/09 04:51:54;;;;;;;;;23.00;20.00;;;;;13.50;65.72;102092.75;5042248;28;45321;-67
2022/05/09 04:54:19;;;;;;;;;24.00;19.00;;;;;13.53;66.07;102095.31;5042260;28;45512;-67
2022/05/09 04:56:44;;;;;;;;;21.50;18.25;;;;;13.56;65.72;102100.47;5042073;28;45264;-67
2022/05/09 04:59:10;;;;;;;;;20.75;17.25;;;;;13.53;66.93;102098.78;5042439;28;45196;-67
2022/05/09 05:01:35;;;;;;;;;19.75;16.50;;;;;13.53;65.75;102090.09;5041904;28;45248;-67
2022/05/09 05:04:04;;;;;;;;;25.75;21.75;;;;;13.54;65.85;102084.84;5042331;28;45281;-63
2022/05/09 05:06:30;;;;;;;;;21.25;17.75;;;;;13.60;66.30;102087.31;5041838;28;45288;-64
2022/05/09 05:08:55;;;;;;;;;19.00;14.75;;;;;13.61;65.84;102091.66;5045176;28;45465;-63
2022/05/09 05:11:20;;;;;;;;;24.50;17.75;;;;;13.62;66.18;102096.03;5045577;28;46263;-65
2022/05/09 05:13:46;;;;;;;;;20.25;16.50;;;;;13.65;65.27;102090.75;5045571;28;45264;-67
2022/05/09 05:16:11;;;;;;;;;23.00;17.75;;;;;13.66;65.73;102094.22;5040298;28;45357;-68
2022/05/09 05:18:36;;;;;;;;;21.75;17.75;;;;;13.65;66.17;102097.72;5041919;28;45347;-66
2022/05/09 05:21:09;;;;;;;;;25.00;16.25;;;;;13.69;66.02;102094.16;5041392;28;45527;-66
2022/05/09 05:23:36;;;;;;;;;27.00;18.00;;;;;13.72;66.35;102095.84;5041712;28;45337;-65
2022/05/09 05:26:01;;;;;;;;;24.75;18.50;;;;;13.75;66.49;102107.09;5041593;28;45451;-67
2022/05/09 05:28:27;;;;;;;;;19.75;15.25;;;;;13.75;66.02;102103.63;5041501;28;45288;-67
2022/05/09 05:30:53;;;;;;;;;21.75;17.75;;;;;13.78;66.79;102106.16;5041426;28;46106;-64
2022/05/09 05:33:20;;;;;;;;;15.00;15.00;;;;;13.81;66.00;102112.19;5040934;28;45307;-64
2022/05/09 05:35:45;;;;;;;;;25.00;20.00;;;;;13.84;66.02;102104.31;5041123;28;45245;-66
2022/05/09 05:38:11;;;;;;;;;21.25;18.25;;;;;13.84;65.91;102111.31;5041182;28;45609;-67
2022/05/09 05:40:36;;;;;;;;;19.50;15.50;;;;;13.84;66.18;102111.31;5045916;28;46257;-64
2022/05/09 05:43:01;;;;;;;;;24.75;20.75;;;;;13.89;65.22;102109.44;5040242;28;45288;-64
2022/05/09 05:45:28;;;;;;;;;28.25;18.25;;;;;13.93;65.49;102101.50;5040926;28;45454;-65
2022/05/09 05:47:54;;;;;;;;;20.75;20.00;;;;;14.00;65.36;102099.63;5040423;28;45316;-65
2022/05/09 05:50:22;;;;;;;;;20.00;15.50;;;;;14.07;65.10;102097.78;5040476;28;46196;-66
2022/05/09 05:52:48;;;;;;;;;16.75;16.75;;;;;14.15;64.90;102101.09;5041117;28;45821;-64
2022/05/09 05:55:13;;;;;;;;;20.50;18.00;;;;;14.23;64.48;102101.81;5040535;28;45239;-63
2022/05/09 05:57:41;;;;;;;;;26.75;18.75;;;;;14.32;64.47;102106.81;5040929;28;45224;-62
2022/05/09 06:00:07;;;;;;;;;25.50;19.75;;;;;14.42;64.62;102110.13;5040702;28;45426;-62
2022/05/09 06:02:32;;;;;;;;;16.50;14.75;;;;;14.45;64.41;102105.72;5040852;28;45252;-63
2022/05/09 06:04:57;;;;;;;;;24.00;20.75;;;;;14.52;64.34;102115.13;5040716;28;45951;-68
2022/05/09 06:07:24;;;;;;;;;17.75;12.75;;;;;14.58;63.88;102104.53;5040916;28;45359;-70
2022/05/09 06:09:51;;;;;;;;;19.50;16.75;;;;;14.63;63.87;102114.91;5047153;28;45399;-67
2022/05/09 06:12:19;;;;;;;;;22.75;16.00;;;;;14.64;63.22;102116.63;5040206;28;46036;-63
2022/05/09 06:15:24;;;;;;;;;20.50;15.25;;;;;14.70;63.25;102119.09;5039574;28;45434;-63
2022/05/09 06:17:30;;;;;;;;;26.25;16.75;;;;;14.74;63.00;102117.28;5040575;28;45372;-62
2022/05/09 06:19:56;;;;;;;;;20.75;17.25;;;;;14.79;63.22;102116.25;5040508;28;45298;-63
2022/05/09 06:22:21;;;;;;;;;21.00;16.25;;;;;14.88;63.13;102118.69;5040500;28;45311;-63
2022/05/09 06:24:46;;;;;;;;;20.00;16.50;;;;;14.91;62.81;102121.22;5040387;28;45623;-63
2022/05/09 06:27:12;;;;;;;;;19.25;16.25;;;;;14.93;62.47;102115.09;5040117;28;45219;-63
2022/05/09 06:29:37;;;;;;;;;24.50;17.75;;;;;14.99;62.20;102115.81;5039609;28;45262;-62
2022/05/09 06:32:02;;;;;;;;;28.25;18.25;;;;;15.07;62.31;102119.13;5039105;28;46030;-62
2022/05/09 06:34:28;;;;;;;;;13.75;13.75;;;;;15.15;61.93;102116.28;5040395;28;45260;-63
2022/05/09 06:36:53;;;;;;;;;26.25;19.25;;;;;15.27;61.74;102123.88;5040350;28;45264;-63
2022/05/09 06:39:18;;;;;;;;;28.00;18.00;;;;;15.31;61.29;102129.88;5039678;28;45333;-63
2022/05/09 06:41:44;;;;;;;;;18.50;13.00;;;;;15.35;61.45;102132.38;5039368;28;45441;-63
2022/05/09 06:44:09;;;;;;;;;23.25;19.50;;;;;15.41;60.91;102137.44;5038842;28;45635;-63
2022/05/09 06:46:35;;;;;;;;;26.75;20.25;;;;;15.46;61.09;102137.38;5038783;28;45705;-63
2022/05/09 06:49:01;;;;;;;;;20.00;16.00;;;;;15.55;61.25;102138.88;5039724;28;45524;-63
2022/05/09 06:51:26;;;;;;;;;23.50;18.75;;;;;15.67;61.09;102138.59;5038667;28;45623;-63
2022/05/09 06:53:52;;;;;;;;;28.25;22.00;;;;;15.76;60.71;102143.59;5039753;28;45530;-63
2022/05/09 06:56:17;;;;;;;;;23.50;17.25;;;;;15.85;60.42;102145.13;5040156;28;45431;-62
2022/05/09 06:58:43;;;;;;;;;24.00;18.00;;;;;15.90;60.32;102141.47;5038566;28;48050;-62
2022/05/09 07:01:16;;;;;;;;;21.75;18.00;;;;;15.99;60.17;102135.94;5040443;28;45303;-62
2022/05/09 07:03:43;;;;;;;;;20.00;17.75;;;;;16.07;59.40;102139.25;5027791;28;45221;-63
2022/05/09 07:06:08;;;;;;;;;28.50;20.50;;;;;16.19;59.64;102132.75;5039541;28;45446;-63
2022/05/09 07:08:34;;;;;;;;;26.50;20.75;;;;;16.28;59.27;102142.16;5039762;28;46249;-62
2022/05/09 07:11:00;;;;;;;;;22.25;18.75;;;;;16.38;59.30;102144.44;5045151;28;45170;-62
2022/05/09 07:13:26;;;;;;;;;18.75;17.50;;;;;16.47;59.16;102156.47;5039914;28;45354;-62
2022/05/09 07:15:54;;;;;;;;;20.75;18.75;;;;;16.51;58.55;102144.97;5040371;28;45554;-63
2022/05/09 07:18:19;;;;;;;;;22.50;18.75;;;;;16.63;58.65;102146.38;5039412;28;45483;-62
2022/05/09 07:20:44;;;;;;;;;19.75;18.75;;;;;16.74;58.50;102136.41;5038487;28;45670;-63
2022/05/09 07:23:11;;;;;;;;;25.50;20.75;;;;;16.86;57.55;102140.44;5039667;28;45485;-62
2022/05/09 07:25:38;;;;;;;;;20.25;18.75;;;;;16.90;57.94;102135.03;5039826;28;45426;-62
2022/05/09 07:28:05;;;;;;;;;22.25;19.75;;;;;17.00;57.66;102138.22;5039129;28;45221;-62
2022/05/09 07:30:31;;;;;;;;;20.00;16.50;;;;;17.11;57.66;102140.50;5039794;28;45265;-62
2022/05/09 07:32:56;;;;;;;;;21.25;19.25;;;;;17.18;57.30;102136.78;5039761;28;45313;-62
2022/05/09 07:35:23;;;;;;;;;23.75;21.00;;;;;17.25;56.64;102143.56;5039722;28;45545;-62
2022/05/09 07:37:48;;;;;;;;;17.75;17.00;;;;;17.27;56.06;102139.97;5039529;28;46387;-62
2022/05/09 07:40:15;;;;;;;;;18.25;16.50;;;;;17.31;56.68;102146.84;5038251;28;46207;-62
2022/05/09 07:42:43;;;;;;;;;23.75;20.00;;;;;17.42;56.73;102141.25;5039251;28;45321;-62
2022/05/09 07:45:11;;;;;;;;;20.75;17.75;;;;;17.49;56.53;102132.22;5037755;28;45328;-63
2022/05/09 07:47:38;;;;;;;;;25.00;21.75;;;;;17.54;56.07;102132.06;5038925;28;45198;-63
2022/05/09 07:50:04;;;;;;;;;20.75;19.00;;;;;17.61;56.20;102130.91;5039550;28;45489;-63
2022/05/09 07:52:29;;;;;;;;;23.75;20.25;;;;;17.76;56.12;102134.84;5039610;28;45440;-63
2022/05/09 07:54:54;;;;;;;;;25.50;19.00;;;;;17.82;55.49;102134.59;5039397;28;45296;-63
2022/05/09 07:57:20;;;;;;;;;19.75;16.00;;;;;17.90;55.86;102128.19;5038867;28;46369;-63
2022/05/09 07:59:45;;;;;;;;;23.75;20.25;;;;;18.03;54.96;102123.34;5039329;28;45376;-63
2022/05/09 08:02:10;;;;;;;;;21.25;18.25;;;;;18.15;55.42;102124.66;5039417;28;45497;-63
2022/05/09 08:04:36;;;;;;;;;22.50;18.50;;;;;18.24;54.87;102125.19;5039226;28;45333;-63
2022/05/09 08:07:02;;;;;;;;;22.75;19.50;;;;;18.37;55.15;102124.69;5039388;28;45357;-64
2022/05/09 08:09:28;;;;;;;;;22.50;20.00;;;;;18.44;54.76;102116.53;5045846;28;45342;-63
2022/05/09 08:11:54;;;;;;;;;26.00;22.50;;;;;18.53;54.31;102118.78;5038541;28;45439;-63
2022/05/09 08:14:20;;;;;;;;;26.50;21.00;;;;;18.64;53.82;102125.47;5039034;28;45244;-63
2022/05/09 08:16:45;;;;;;;;;24.75;18.50;;;;;18.69;53.83;102118.25;5038753;28;45476;-63
2022/05/09 08:19:14;;;;;;;;;27.50;21.50;;;;;18.76;53.71;102115.28;5039056;28;45402;-63
2022/05/09 08:21:40;;;;;;;;;21.25;21.00;;;;;18.84;53.50;102120.28;5038438;28;45459;-63
2022/05/09 08:24:06;;;;;;;;;23.25;19.00;;;;;18.92;53.30;102126.06;5037631;28;45450;-63
2022/05/09 08:26:32;;;;;;;;;22.50;19.50;;;;;18.96;53.27;102125.03;5038532;28;46432;-63
2022/05/09 08:28:57;;;;;;;;;22.50;19.00;;;;;19.09;53.31;102128.88;5038961;28;45299;-63
2022/05/09 08:31:23;;;;;;;;;14.75;10.50;;;;;19.20;53.41;102128.44;5038532;28;45245;-63
2022/05/09 08:33:50;;;;;;;;;25.00;19.75;;;;;19.30;52.59;102131.56;5039112;28;45184;-62
2022/05/09 08:36:59;;;;;;;;;25.50;21.75;;;;;19.37;52.91;102133.00;5038527;28;45628;-63
2022/05/09 08:39:07;;;;;;;;;28.50;21.00;;;;;19.48;53.19;102119.38;5032661;28;45325;-63
2022/05/09 08:41:36;;;;;;;;;22.00;21.00;;;;;19.57;51.94;102129.56;5039023;28;45383;-63
2022/05/09 08:44:30;;;;;;;;;22.75;19.50;;;;;19.66;52.37;102123.91;5038467;28;45406;-63
2022/05/09 08:47:16;;;;;;;;;31.50;23.75;;;;;19.73;52.21;102127.97;5038751;28;45312;-63
2022/05/09 08:50:21;;;;;;;;;28.75;24.00;;;;;19.83;52.23;102125.81;5038649;28;45222;-62
2022/05/09 08:52:53;;;;;;;;;26.75;23.75;;;;;19.93;51.48;102121.81;5028893;28;45216;-63
2022/05/09 08:55:26;;;;;;;;;27.50;25.25;;;;;20.02;51.51;102121.41;5037103;28;45242;-63
2022/05/09 08:57:58;;;;;;;;;26.00;22.75;;;;;20.11;51.42;102120.16;5038722;28;46236;-63
2022/05/09 09:00:29;;;;;;;;;26.00;23.50;;;;;20.19;50.95;102118.00;5038757;28;45812;-64
2022/05/09 09:03:38;;;;;;;;;22.50;19.00;;;;;20.26;51.07;102111.53;5038931;28;45474;-63
2022/05/09 09:06:30;;;;;;;;;28.00;23.50;;;;;20.33;50.75;102118.22;5039100;28;45412;-63
2022/05/09 09:09:14;;;;;;;;;25.50;22.25;;;;;20.43;50.60;102116.06;5032374;28;45279;-64
2022/05/09 09:11:48;;;;;;;;;25.25;21.50;;;;;20.53;50.44;102115.53;5038621;28;45221;-63
2022/05/09 09:14:45;;;;;;;;;29.50;22.75;;;;;20.69;50.34;102122.75;5038726;28;45515;-64
2022/05/09 09:17:29;;;;;;;;;30.00;24.00;;;;;20.76;49.85;102113.59;5000306;28;45255;-63
2022/05/09 09:20:17;;;;;;;;;27.75;22.75;;;;;20.85;49.97;102106.09;5038252;28;46362;-63
2022/05/09 09:22:50;;;;;;;;;25.00;24.25;;;;;20.90;49.65;102101.44;5037978;28;45268;-63
2022/05/09 09:25:40;;;;;;;;;24.75;23.75;;;;;20.90;49.66;102096.16;5041780;28;45254;-63
2022/05/09 09:28:26;;;;;;;;;26.00;22.25;;;;;20.91;48.84;102097.00;5041487;28;45389;-63
2022/05/09 09:30:53;;;;;;;;;25.75;23.00;;;;;20.95;49.10;102095.91;5041541;28;46345;-63
2022/05/09 09:33:20;;;;;;;;;26.00;22.25;;;;;21.06;48.60;102100.69;5041562;28;45365;-62
2022/05/09 09:36:02;;;;;;;;;27.00;22.75;;;;;21.16;49.13;102102.78;5041416;28;45328;-62
2022/05/09 09:38:45;;;;;;;;;20.50;19.00;;;;;21.21;48.86;102094.59;5041125;28;45315;-63
2022/05/09 09:41:23;;;;;;;;;23.25;23.00;;;;;21.34;48.79;102100.16;5028438;28;46328;-62
2022/05/09 09:44:04;;;;;;;;;26.00;22.50;;;;;21.37;47.57;102095.56;5041365;28;45827;-62
2022/05/09 09:46:30;;;;;;;;;31.00;25.50;;;;;21.45;47.92;102098.69;5032991;28;45403;-62
2022/05/09 09:49:08;;;;;;;;;24.50;23.75;;;;;21.58;47.58;102105.97;5041205;28;45469;-63
2022/05/09 09:51:48;;;;;;;;;23.25;20.75;;;;;21.65;48.13;102102.09;5041595;28;45380;-63
2022/05/09 09:54:23;;;;;;;;;28.25;26.25;;;;;21.72;47.44;102100.84;5029792;28;45308;-63
2022/05/09 09:56:49;;;;;;;;;31.50;23.00;;;;;21.82;47.45;102091.47;5041259;28;45485;-62
2022/05/09 09:59:14;;;;;;;;;33.00;23.75;;;;;21.89;46.67;102089.38;5039744;28;45348;-63
2022/05/09 10:01:40;;;;;;;;;32.67;25.33;;;;;21.95;47.12;102084.59;5040815;28;45407;-63
2022/05/09 10:04:09;;;;;;;;;28.50;19.75;;;;;22.02;46.60;102082.44;5040705;28;45279;-63
2022/05/09 10:06:54;;;;;;;;;26.00;24.25;;;;;22.06;45.87;102084.91;5040449;28;45245;-63
2022/05/09 10:09:20;;;;;;;;;27.50;23.50;;;;;22.14;45.97;102077.38;5046740;28;45248;-63
2022/05/09 10:11:47;;;;;;;;;27.50;24.25;;;;;22.19;45.20;102077.13;5039538;28;45558;-63
2022/05/09 10:14:36;;;;;;;;;23.75;20.75;;;;;22.21;45.37;102072.59;5040612;28;45269;-63
2022/05/09 10:17:20;;;;;;;;;25.50;23.75;;;;;22.30;46.23;102081.84;5027213;28;45345;-63
2022/05/09 10:19:46;;;;;;;;;24.50;19.50;;;;;22.38;45.31;102071.66;5039952;28;45327;-63
2022/05/09 10:25:22;;;;;;;;;26.75;23.25;;;;;22.62;44.79;102062.34;5039257;28;45454;-63
2022/05/09 10:28:03;;;;;;;;;20.75;19.50;;;;;22.78;44.39;102070.25;5038525;28;45310;-63
2022/05/09 10:30:45;;;;;;;;;22.25;19.50;;;;;22.92;44.69;102064.22;5040704;28;45266;-63
2022/05/09 10:33:31;;;;;;;;;23.00;20.25;;;;;23.05;44.55;102065.22;5038617;28;47063;-63
2022/05/09 10:36:01;;;;;;;;;23.25;21.50;;;;;23.12;42.57;102065.69;5038110;28;45809;-64
2022/05/09 10:38:43;;;;;;;;;19.75;17.75;;;;;23.23;42.65;102065.91;5034000;28;45298;-63
2022/05/09 10:41:37;;;;;;;;;22.00;18.50;;;;;23.28;41.09;102061.19;5040500;28;45354;-63
2022/05/09 10:44:17;;;;;;;;;19.75;17.50;;;;;23.26;40.62;102060.44;5035616;28;46459;-63
2022/05/09 10:46:49;;;;;;;;;22.00;18.00;;;;;23.26;41.79;102058.63;5040777;28;45290;-63
2022/05/09 10:49:45;;;;;;;;;27.50;24.50;;;;;23.38;41.07;102057.03;5023558;28;45250;-65
2022/05/09 10:52:42;;;;;;;;;25.75;21.75;;;;;23.42;42.03;102055.88;5038340;28;45282;-64
2022/05/09 10:55:15;;;;;;;;;23.75;21.50;;;;;23.54;41.74;102049.84;5039421;28;46461;-63
2022/05/09 10:57:46;;;;;;;;;26.75;23.00;;;;;23.63;42.32;102051.13;5039907;28;45647;-64
2022/05/09 11:00:19;;;;;;;;;22.50;21.75;;;;;23.67;40.45;102042.03;5040033;28;45357;-64
2022/05/09 11:03:10;;;;;;;;;26.50;22.50;;;;;23.70;39.95;102040.97;5040450;28;45481;-64
2022/05/09 11:05:50;;;;;;;;;20.75;19.75;;;;;23.72;39.68;102042.59;5033321;28;46769;-63
2022/05/09 11:08:26;;;;;;;;;20.00;16.75;;;;;23.75;40.28;102050.34;5038133;28;45447;-63
2022/05/09 11:11:08;;;;;;;;;20.75;18.25;;;;;23.84;39.68;102043.63;5038264;28;45405;-62
2022/05/09 11:14:00;;;;;;;;;27.25;21.50;;;;;23.97;38.86;102042.75;5037035;28;45415;-63
2022/05/09 11:16:43;;;;;;;;;20.50;19.50;;;;;24.04;38.59;102045.03;5039613;28;46484;-62
2022/05/09 11:19:34;;;;;;;;;22.75;20.25;;;;;24.07;38.36;102042.19;5039140;28;45455;-63
2022/05/09 11:22:12;;;;;;;;;21.50;19.25;;;;;24.15;39.29;102038.06;5027447;28;45353;-63
2022/05/09 11:25:15;;;;;;;;;23.00;19.50;;;;;24.22;38.46;102034.06;5038455;28;45225;-64
2022/05/09 11:27:53;;;;;;;;;22.00;19.75;;;;;24.30;38.88;102032.78;5037460;28;47230;-64
2022/05/09 11:30:28;;;;;;;;;23.00;21.00;;;;;24.38;37.84;102039.28;5039376;28;45656;-63
2022/05/09 11:33:28;;;;;;;;;26.75;23.50;;;;;24.37;38.16;102023.44;5039494;28;45295;-64